createdAt,value
2022-09-17T00:01:31.787Z,2.05
2022-09-17T00:04:04.274Z,1.92
2022-09-17T00:06:34.937Z,2.15
2022-09-17T00:09:05.278Z,2.42
2022-09-17T00:11:36.787Z,1.98
2022-09-17T00:14:07.108Z,1.80
2022-09-17T00:16:42.668Z,2.47
2022-09-17T00:19:20.687Z,1.83
2022-09-17T00:21:48.694Z,2.10
2022-09-17T00:24:18.143Z,2.75
2022-09-17T00:26:45.738Z,1.85
2022-09-17T00:29:13.944Z,2.60
2022-09-17T00:31:41.914Z,3.33
2022-09-17T00:34:09.836Z,1.85
2022-09-17T00:36:39.494Z,2.38
2022-09-17T00:39:15.636Z,2.10
2022-09-17T00:41:43.877Z,2.38
2022-09-17T00:44:49.087Z,1.77
2022-09-17T00:47:33.174Z,1.80
2022-09-17T00:50:08.386Z,2.65
2022-09-17T00:52:54.697Z,2.95
2022-09-17T00:55:30.189Z,2.30
2022-09-17T00:58:02.392Z,3.13
2022-09-17T01:00:31.395Z,2.55
2022-09-17T01:02:59.479Z,2.70
2022-09-17T01:06:07.269Z,3.13
2022-09-17T01:08:54.645Z,2.88
2022-09-17T01:11:31.173Z,2.63
2022-09-17T01:14:04.628Z,2.55
2022-09-17T01:17:04.991Z,3.30
2022-09-17T01:19:41.579Z,2.70
2022-09-17T01:22:37.328Z,2.60
2022-09-17T01:25:25.775Z,3.03
2022-09-17T01:28:29.247Z,2.58
2022-09-17T01:31:31.511Z,2.80
2022-09-17T01:34:16.282Z,2.38
2022-09-17T01:37:14.723Z,2.47
2022-09-17T01:40:09.268Z,2.58
2022-09-17T01:42:57.270Z,2.55
2022-09-17T01:45:52.435Z,2.80
2022-09-17T01:48:23.999Z,2.08
2022-09-17T01:51:16.793Z,2.30
2022-09-17T01:54:10.749Z,1.92
2022-09-17T01:56:48.258Z,2.20
2022-09-17T01:59:31.965Z,1.73
2022-09-17T02:02:29.076Z,1.85
2022-09-17T02:05:34.704Z,1.83
2022-09-17T02:08:15.898Z,1.30
2022-09-17T02:10:59.472Z,2.58
2022-09-17T02:13:35.058Z,2.38
2022-09-17T02:16:08.821Z,2.28
2022-09-17T02:19:19.723Z,1.60
2022-09-17T02:22:12.933Z,2.10
2022-09-17T02:25:09.192Z,1.70
2022-09-17T02:28:03.672Z,1.80
2022-09-17T02:30:32.176Z,2.10
2022-09-17T02:33:02.579Z,1.90
2022-09-17T02:35:32.270Z,2.25
2022-09-17T02:38:00.824Z,2.25
2022-09-17T02:40:33.329Z,1.75
2022-09-17T02:43:13.922Z,2.08
2022-09-17T02:46:10.061Z,1.70
2022-09-17T02:49:03.417Z,1.90
2022-09-17T02:51:59.868Z,1.88
2022-09-17T02:54:50.773Z,1.65
2022-09-17T02:57:31.169Z,2.15
2022-09-17T03:00:21.090Z,2.47
2022-09-17T03:03:02.058Z,1.90
2022-09-17T03:05:30.295Z,2.17
2022-09-17T03:08:00.800Z,1.75
2022-09-17T03:10:33.325Z,1.85
2022-09-17T03:13:01.026Z,1.80
2022-09-17T03:15:28.597Z,1.60
2022-09-17T03:17:56.169Z,1.83
2022-09-17T03:20:24.087Z,1.63
2022-09-17T03:22:54.669Z,1.50
2022-09-17T03:25:22.245Z,1.50
2022-09-17T03:27:49.935Z,1.33
2022-09-17T03:30:18.376Z,1.30
2022-09-17T03:32:46.369Z,1.27
2022-09-17T03:35:14.057Z,2.03
2022-09-17T03:37:41.635Z,1.30
2022-09-17T03:40:09.462Z,1.40
2022-09-17T03:42:37.141Z,1.15
2022-09-17T03:45:05.740Z,1.50
2022-09-17T03:47:33.325Z,1.02
2022-09-17T03:50:00.869Z,1.23
2022-09-17T03:52:28.468Z,1.00
2022-09-17T03:54:56.113Z,1.40
2022-09-17T03:57:23.758Z,1.27
2022-09-17T03:59:51.353Z,1.60
2022-09-17T04:02:19.087Z,1.60
2022-09-17T04:04:46.709Z,1.83
2022-09-17T04:07:14.286Z,1.23
2022-09-17T04:09:41.899Z,1.10
2022-09-17T04:12:09.561Z,1.88
2022-09-17T04:14:37.167Z,0.88
2022-09-17T04:17:04.891Z,0.68
2022-09-17T04:19:32.473Z,1.20
2022-09-17T04:22:00.311Z,1.00
2022-09-17T04:24:27.877Z,0.93
2022-09-17T04:26:55.459Z,1.65
2022-09-17T04:29:23.048Z,1.13
2022-09-17T04:31:50.686Z,1.48
2022-09-17T04:34:18.278Z,1.13
2022-09-17T04:36:45.858Z,1.88
2022-09-17T04:39:13.730Z,1.42
2022-09-17T04:41:41.375Z,1.40
2022-09-17T04:44:08.963Z,1.67
2022-09-17T04:46:36.643Z,1.42
2022-09-17T04:49:04.272Z,1.77
2022-09-17T04:51:31.993Z,1.40
2022-09-17T04:53:59.523Z,1.35
2022-09-17T04:56:27.172Z,1.33
2022-09-17T04:58:54.736Z,1.65
2022-09-17T05:01:22.600Z,1.38
2022-09-17T05:03:50.386Z,1.20
2022-09-17T05:06:18.034Z,0.98
2022-09-17T05:08:45.613Z,0.95
2022-09-17T05:11:13.545Z,1.08
2022-09-17T05:13:41.155Z,0.88
2022-09-17T05:16:08.865Z,1.45
2022-09-17T05:18:36.467Z,1.10
2022-09-17T05:21:04.332Z,1.00
2022-09-17T05:23:31.993Z,1.00
2022-09-17T05:26:01.023Z,1.63
2022-09-17T05:28:29.249Z,1.33
2022-09-17T05:30:59.992Z,1.23
2022-09-17T05:33:28.212Z,0.82
2022-09-17T05:35:55.851Z,1.05
2022-09-17T05:38:23.504Z,0.82
2022-09-17T05:40:51.290Z,0.70
2022-09-17T05:43:18.923Z,0.98
2022-09-17T05:45:46.848Z,1.15
2022-09-17T05:48:15.416Z,0.90
2022-09-17T05:50:43.146Z,1.20
2022-09-17T05:53:13.299Z,0.90
2022-09-17T05:55:40.913Z,1.02
2022-09-17T05:58:18.406Z,1.20
2022-09-17T06:00:48.789Z,1.85
2022-09-17T06:03:19.764Z,0.93
2022-09-17T06:05:56.718Z,1.23
2022-09-17T06:08:27.108Z,1.05
2022-09-17T06:10:56.982Z,1.35
2022-09-17T06:13:27.962Z,0.90
2022-09-17T06:15:55.650Z,1.25
2022-09-17T06:18:23.350Z,1.02
2022-09-17T06:21:00.600Z,0.82
2022-09-17T06:23:33.145Z,1.10
2022-09-17T06:26:02.917Z,0.93
2022-09-17T06:28:31.143Z,1.58
2022-09-17T06:31:07.734Z,1.80
2022-09-17T06:33:36.448Z,1.23
2022-09-17T06:36:13.142Z,1.25
2022-09-17T06:38:41.808Z,1.02
2022-09-17T06:41:09.565Z,0.70
2022-09-17T06:43:37.214Z,0.40
2022-09-17T06:46:08.967Z,0.80
2022-09-17T06:48:37.690Z,0.70
2022-09-17T06:51:08.531Z,0.80
2022-09-17T06:53:37.892Z,1.00
2022-09-17T06:56:08.267Z,1.65
2022-09-17T06:58:37.585Z,1.17
2022-09-17T07:01:06.433Z,0.73
2022-09-17T07:03:34.617Z,1.20
2022-09-17T07:06:03.065Z,0.75
2022-09-17T07:08:34.538Z,0.98
2022-09-17T07:11:02.472Z,1.05
2022-09-17T07:13:30.047Z,0.70
2022-09-17T07:16:00.678Z,0.85
2022-09-17T07:18:28.524Z,0.88
2022-09-17T07:21:02.100Z,1.05
2022-09-17T07:23:35.487Z,1.30
2022-09-17T07:26:13.318Z,1.42
2022-09-17T07:28:42.067Z,1.25
2022-09-17T07:31:16.153Z,0.93
2022-09-17T07:33:45.475Z,1.08
2022-09-17T07:36:15.529Z,1.23
2022-09-17T07:38:43.135Z,0.98
2022-09-17T07:41:17.100Z,0.90
2022-09-17T07:43:45.364Z,0.95
2022-09-17T07:46:21.021Z,0.70
2022-09-17T07:51:23.666Z,1.00
2022-09-17T07:53:54.093Z,0.70
2022-09-17T07:56:22.802Z,0.75
2022-09-17T07:58:50.390Z,0.80
2022-09-17T08:01:20.881Z,1.33
2022-09-17T08:03:51.882Z,0.60
2022-09-17T08:06:28.414Z,1.20
2022-09-17T08:08:58.759Z,0.93
2022-09-17T08:11:54.381Z,0.90
2022-09-17T08:14:17.260Z,0.68
2022-09-17T08:16:47.484Z,0.52
2022-09-17T08:19:15.237Z,1.30
2022-09-17T08:21:42.817Z,0.73
2022-09-17T08:24:10.571Z,1.23
2022-09-17T08:26:38.841Z,0.57
2022-09-17T08:29:07.506Z,0.45
2022-09-17T08:31:35.374Z,0.90
2022-09-17T08:34:07.744Z,1.10
2022-09-17T08:36:35.835Z,0.95
2022-09-17T08:39:04.035Z,1.08
2022-09-17T08:42:03.966Z,0.80
2022-09-17T08:44:41.732Z,0.93
2022-09-17T08:47:39.344Z,1.10
2022-09-17T08:50:15.488Z,0.88
2022-09-17T08:53:08.015Z,1.45
2022-09-17T08:56:01.953Z,0.88
2022-09-17T08:59:03.492Z,1.10
2022-09-17T09:02:04.361Z,0.55
2022-09-17T09:05:15.816Z,0.77
2022-09-17T09:07:56.178Z,0.60
2022-09-17T09:10:39.954Z,0.65
2022-09-17T09:13:11.667Z,0.75
2022-09-17T09:16:00.862Z,0.50
2022-09-17T09:18:37.235Z,1.05
2022-09-17T09:21:29.672Z,0.63
2022-09-17T09:24:25.269Z,0.60
2022-09-17T09:27:38.440Z,0.85
2022-09-17T09:30:13.493Z,1.05
2022-09-17T09:33:37.959Z,0.80
2022-09-17T09:36:14.916Z,1.15
2022-09-17T09:39:01.794Z,1.30
2022-09-17T09:42:03.956Z,1.20
2022-09-17T09:44:31.848Z,1.40
2022-09-17T09:47:24.602Z,1.10
2022-09-17T09:50:08.261Z,1.20
2022-09-17T09:53:10.005Z,1.63
2022-09-17T09:56:03.085Z,0.98
2022-09-17T09:58:40.163Z,0.70
2022-09-17T10:01:28.296Z,1.20
2022-09-17T10:03:59.063Z,1.20
2022-09-17T10:06:31.449Z,1.17
2022-09-17T10:09:02.135Z,1.25
2022-09-17T10:11:33.787Z,0.90
2022-09-17T10:14:22.322Z,0.93
2022-09-17T10:16:50.511Z,1.52
2022-09-17T10:19:25.763Z,0.90
2022-09-17T10:21:54.137Z,1.40
2022-09-17T10:24:31.958Z,0.90
2022-09-17T10:27:14.357Z,1.80
2022-09-17T10:29:51.593Z,1.08
2022-09-17T10:32:22.699Z,1.85
2022-09-17T10:35:07.218Z,1.15
2022-09-17T10:37:43.782Z,1.45
2022-09-17T10:40:32.521Z,1.10
2022-09-17T10:43:19.236Z,1.25
2022-09-17T10:45:59.274Z,1.67
2022-09-17T10:48:36.673Z,1.35
2022-09-17T10:51:06.760Z,1.33
2022-09-17T10:54:02.270Z,1.40
2022-09-17T10:56:37.899Z,1.23
2022-09-17T10:59:52.740Z,1.38
2022-09-17T11:03:06.905Z,1.60
2022-09-17T11:05:49.491Z,1.27
2022-09-17T11:08:51.312Z,1.17
2022-09-17T11:11:50.892Z,1.58
2022-09-17T11:14:48.208Z,1.30
2022-09-17T11:17:46.871Z,1.33
2022-09-17T11:20:36.367Z,1.98
2022-09-17T11:23:53.393Z,1.27
2022-09-17T11:26:26.756Z,1.20
2022-09-17T11:29:01.143Z,1.58
2022-09-17T11:31:46.681Z,1.70
2022-09-17T11:34:47.674Z,1.75
2022-09-17T11:37:32.968Z,1.65
2022-09-17T11:40:13.717Z,1.67
2022-09-17T11:42:53.547Z,1.90
2022-09-17T11:45:38.460Z,0.80
2022-09-17T11:48:17.413Z,1.25
2022-09-17T11:50:58.583Z,1.13
2022-09-17T11:53:38.096Z,1.30
2022-09-17T11:56:29.605Z,1.70
2022-09-17T11:59:14.951Z,0.93
2022-09-17T12:01:53.371Z,1.90
2022-09-17T12:04:47.588Z,1.50
2022-09-17T12:07:33.860Z,1.83
2022-09-17T12:10:43.289Z,1.75
2022-09-17T12:13:35.916Z,1.73
2022-09-17T12:16:42.963Z,1.27
2022-09-17T12:19:41.047Z,1.90
2022-09-17T12:22:27.799Z,1.58
2022-09-17T12:24:55.504Z,1.27
2022-09-17T12:27:59.908Z,1.10
2022-09-17T12:30:37.705Z,1.55
2022-09-17T12:33:23.874Z,1.23
2022-09-17T12:39:16.555Z,1.40
2022-09-17T12:41:57.167Z,1.45
2022-09-17T12:44:51.315Z,1.08
2022-09-17T12:47:55.485Z,0.82
2022-09-17T12:50:50.633Z,0.88
2022-09-17T12:53:37.628Z,1.20
2022-09-17T12:56:26.032Z,0.80
2022-09-17T12:59:20.394Z,0.68
2022-09-17T13:02:24.549Z,0.93
2022-09-17T13:06:09.267Z,0.73
2022-09-17T13:09:05.434Z,0.95
2022-09-17T13:11:46.150Z,1.55
2022-09-17T13:14:51.338Z,1.35
2022-09-17T13:17:42.127Z,0.88
2022-09-17T13:21:05.676Z,1.08
2022-09-17T13:23:45.944Z,1.42
2022-09-17T13:26:19.240Z,1.17
2022-09-17T13:28:52.214Z,1.05
2022-09-17T13:31:44.504Z,1.00
2022-09-17T13:34:18.455Z,1.00
2022-09-17T13:36:57.290Z,1.23
2022-09-17T13:39:48.464Z,1.00
2022-09-17T13:42:30.434Z,0.82
2022-09-17T13:45:16.940Z,1.23
2022-09-17T13:48:00.015Z,1.40
2022-09-17T13:50:28.942Z,0.90
2022-09-17T13:53:01.285Z,1.10
2022-09-17T13:55:39.824Z,0.70
2022-09-17T13:58:22.056Z,0.70
2022-09-17T14:01:02.512Z,1.08
2022-09-17T14:03:45.818Z,1.15
2022-09-17T14:06:18.056Z,1.00
2022-09-17T14:08:46.630Z,0.70
2022-09-17T14:11:23.521Z,1.13
2022-09-17T14:13:56.330Z,0.80
2022-09-17T14:16:36.998Z,0.70
2022-09-17T14:19:27.932Z,0.68
2022-09-17T14:21:57.192Z,0.98
2022-09-17T14:24:44.431Z,1.20
2022-09-17T14:27:42.582Z,0.82
2022-09-17T14:30:31.000Z,1.25
2022-09-17T14:33:01.591Z,1.08
2022-09-17T14:35:47.040Z,1.17
2022-09-17T14:38:47.648Z,1.17
2022-09-17T14:41:15.232Z,0.70
2022-09-17T14:43:55.082Z,1.25
2022-09-17T14:46:29.693Z,0.70
2022-09-17T14:49:30.478Z,0.98
2022-09-17T14:51:59.331Z,1.60
2022-09-17T14:54:35.764Z,1.23
2022-09-17T14:57:10.555Z,1.33
2022-09-17T14:59:56.295Z,1.08
2022-09-17T15:02:43.863Z,0.80
2022-09-17T15:05:21.352Z,0.90
2022-09-17T15:07:50.026Z,1.10
2022-09-17T15:10:22.804Z,1.20
2022-09-17T15:12:51.620Z,1.38
2022-09-17T15:15:25.219Z,1.50
2022-09-17T15:17:54.568Z,1.20
2022-09-17T15:20:28.693Z,1.20
2022-09-17T15:23:25.491Z,1.77
2022-09-17T15:25:57.830Z,1.75
2022-09-17T15:28:36.935Z,1.52
2022-09-17T15:31:07.150Z,1.98
2022-09-17T15:33:35.246Z,1.27
2022-09-17T15:36:23.462Z,1.50
2022-09-17T15:38:51.828Z,1.42
2022-09-17T15:41:26.728Z,1.67
2022-09-17T15:44:03.737Z,1.40
2022-09-17T15:46:41.568Z,1.33
2022-09-17T15:49:35.292Z,1.77
2022-09-17T15:52:31.202Z,1.95
2022-09-17T15:55:00.648Z,1.77
2022-09-17T15:57:31.512Z,1.23
2022-09-17T16:00:14.035Z,1.92
2022-09-17T16:02:42.286Z,1.60
2022-09-17T16:05:16.747Z,2.17
2022-09-17T16:07:48.022Z,1.80
2022-09-17T16:10:15.984Z,2.00
2022-09-17T16:12:44.118Z,1.92
2022-09-17T16:15:13.476Z,2.20
2022-09-17T16:17:47.414Z,1.67
2022-09-17T16:20:24.143Z,2.08
2022-09-17T16:22:53.404Z,1.52
2022-09-17T16:25:26.773Z,1.65
2022-09-17T16:28:11.256Z,1.80
2022-09-17T16:30:43.840Z,1.42
2022-09-17T16:33:12.822Z,1.42
2022-09-17T16:35:41.540Z,1.10
2022-09-17T16:38:11.535Z,0.85
2022-09-17T16:40:46.583Z,1.00
2022-09-17T16:43:15.957Z,1.73
2022-09-17T16:45:44.077Z,1.20
2022-09-17T16:48:11.893Z,1.17
2022-09-17T16:50:41.403Z,1.20
2022-09-17T16:53:09.075Z,1.33
2022-09-17T16:55:37.593Z,1.70
2022-09-17T16:58:05.459Z,1.70
2022-09-17T17:00:33.343Z,1.80
2022-09-17T17:03:01.334Z,1.30
2022-09-17T17:05:28.999Z,1.60
2022-09-17T17:07:57.204Z,1.65
2022-09-17T17:10:26.556Z,1.40
2022-09-17T17:12:54.506Z,1.23
2022-09-17T17:15:23.686Z,1.13
2022-09-17T17:17:51.653Z,1.30
2022-09-17T17:20:20.302Z,1.75
2022-09-17T17:22:48.199Z,1.92
2022-09-17T17:25:15.884Z,1.30
2022-09-17T17:27:44.563Z,1.45
2022-09-17T17:30:17.809Z,1.42
2022-09-17T17:32:51.132Z,1.13
2022-09-17T17:35:20.468Z,1.40
2022-09-17T17:37:48.666Z,1.02
2022-09-17T17:40:16.664Z,1.20
2022-09-17T17:42:47.205Z,1.40
2022-09-17T17:45:15.576Z,1.83
2022-09-17T17:47:43.413Z,1.50
2022-09-17T17:50:12.572Z,1.20
2022-09-17T17:52:43.466Z,1.50
2022-09-17T17:55:11.383Z,1.52
2022-09-17T17:57:39.070Z,1.80
2022-09-17T18:00:09.616Z,1.63
2022-09-17T18:02:41.104Z,1.80
2022-09-17T18:05:27.809Z,1.30
2022-09-17T18:07:55.587Z,1.30
2022-09-17T18:10:24.175Z,1.65
2022-09-17T18:12:53.559Z,1.10
2022-09-17T18:15:21.223Z,1.38
2022-09-17T18:17:50.151Z,1.45
2022-09-17T18:20:18.830Z,1.45
2022-09-17T18:22:46.424Z,1.70
2022-09-17T18:25:14.248Z,1.45
2022-09-17T18:27:42.193Z,1.40
2022-09-17T18:30:11.315Z,1.75
2022-09-17T18:32:39.706Z,1.85
2022-09-17T18:35:07.797Z,1.70
2022-09-17T18:37:35.464Z,2.08
2022-09-17T18:40:04.141Z,1.55
2022-09-17T18:42:31.888Z,1.60
2022-09-17T18:44:59.815Z,1.95
2022-09-17T18:47:27.431Z,1.55
2022-09-17T18:49:55.083Z,2.22
2022-09-17T18:52:22.694Z,1.23
2022-09-17T18:54:50.445Z,1.35
2022-09-17T18:57:18.098Z,0.90
2022-09-17T18:59:46.290Z,1.60
2022-09-17T19:02:14.082Z,1.90
2022-09-17T19:04:42.103Z,2.63
2022-09-17T19:07:09.760Z,3.22
2022-09-17T19:09:37.347Z,1.85
2022-09-17T19:12:05.098Z,1.73
2022-09-17T19:14:32.949Z,1.40
2022-09-17T19:17:00.620Z,1.35
2022-09-17T19:19:28.951Z,1.52
2022-09-17T19:21:56.662Z,1.55
2022-09-17T19:24:26.751Z,1.52
2022-09-17T19:26:54.626Z,1.10
2022-09-17T19:29:22.266Z,1.30
2022-09-17T19:31:50.185Z,1.23
2022-09-17T19:34:17.850Z,2.63
2022-09-17T19:36:45.662Z,1.67
2022-09-17T19:39:13.992Z,1.65
2022-09-17T19:41:41.600Z,1.13
2022-09-17T19:44:09.451Z,1.50
2022-09-17T19:46:37.146Z,1.23
2022-09-17T19:49:05.095Z,1.58
2022-09-17T19:51:33.888Z,1.23
2022-09-17T19:54:01.701Z,1.60
2022-09-17T19:56:29.389Z,1.20
2022-09-17T19:58:57.012Z,2.15
2022-09-17T20:01:24.859Z,1.67
2022-09-17T20:03:55.691Z,1.48
2022-09-17T20:06:24.422Z,1.40
2022-09-17T20:08:54.877Z,3.13
2022-09-17T20:11:25.269Z,2.00
2022-09-17T20:17:52.250Z,1.50
2022-09-17T20:20:20.015Z,1.35
2022-09-17T20:22:50.665Z,1.83
2022-09-17T20:25:18.414Z,1.33
2022-09-17T20:31:03.866Z,1.58
2022-09-17T20:33:35.901Z,1.09
2022-09-17T20:36:09.175Z,1.60
2022-09-17T20:41:25.654Z,1.67
2022-09-17T20:43:54.129Z,1.67
2022-09-17T20:46:28.678Z,1.50
2022-09-17T20:48:58.359Z,2.00
2022-09-17T20:51:28.985Z,1.65
2022-09-17T20:53:57.930Z,1.83
2022-09-17T20:56:29.219Z,1.35
2022-09-17T20:59:13.769Z,1.30
2022-09-17T21:01:49.985Z,1.20
2022-09-17T21:04:20.440Z,1.30
2022-09-17T21:06:53.574Z,1.17
2022-09-17T21:10:18.370Z,1.65
2022-09-17T21:12:46.144Z,1.20
2022-09-17T21:15:14.953Z,1.90
2022-09-17T21:17:45.320Z,1.25
2022-09-17T21:20:13.067Z,1.00
2022-09-17T21:23:48.547Z,1.45
2022-09-17T21:26:20.053Z,1.15
2022-09-17T21:28:50.267Z,1.10
2022-09-17T21:31:21.861Z,1.17
2022-09-17T21:33:57.197Z,1.20
2022-09-17T21:36:28.199Z,1.70
2022-09-17T21:39:06.410Z,1.10
2022-09-17T21:41:37.540Z,1.20
2022-09-17T21:44:09.992Z,1.52
2022-09-17T21:46:38.660Z,1.17
2022-09-17T21:49:06.451Z,1.25
2022-09-17T21:51:40.362Z,1.38
2022-09-17T21:54:15.958Z,1.60
2022-09-17T21:56:46.973Z,0.80
2022-09-17T21:59:16.544Z,1.00
2022-09-17T22:01:48.138Z,1.50
2022-09-17T22:04:19.392Z,1.00
2022-09-17T22:07:04.650Z,0.89
2022-09-17T22:09:32.538Z,1.08
2022-09-17T22:12:01.786Z,0.85
2022-09-17T22:14:30.316Z,1.33
2022-09-17T22:16:58.767Z,1.08
2022-09-17T22:19:26.747Z,1.10
2022-09-17T22:21:56.260Z,0.90
2022-09-17T22:24:25.079Z,1.23
2022-09-17T22:26:57.777Z,1.10
2022-09-17T22:29:28.494Z,0.93
2022-09-17T22:31:57.259Z,0.95
2022-09-17T22:34:26.418Z,1.10
2022-09-17T22:36:54.170Z,0.98
2022-09-17T22:39:22.548Z,1.17
2022-09-17T22:41:50.652Z,1.05
2022-09-17T22:44:20.375Z,1.02
2022-09-17T22:46:50.873Z,1.23
2022-09-17T22:49:19.394Z,1.17
2022-09-17T22:51:47.446Z,1.20
2022-09-17T22:54:17.863Z,1.30
2022-09-17T22:56:47.369Z,1.30
2022-09-17T22:59:15.253Z,1.20
2022-09-17T23:01:43.119Z,1.00
2022-09-17T23:04:10.847Z,1.20
2022-09-17T23:06:42.136Z,0.85
2022-09-17T23:09:12.016Z,1.23
2022-09-17T23:11:40.324Z,1.23
2022-09-17T23:14:12.328Z,1.10
2022-09-17T23:16:44.397Z,1.38
2022-09-17T23:19:12.934Z,1.00
2022-09-17T23:21:40.543Z,1.10
2022-09-17T23:24:11.477Z,1.50
2022-09-17T23:26:39.333Z,1.10
2022-09-17T23:29:06.953Z,0.80
2022-09-17T23:31:35.491Z,1.30
2022-09-17T23:34:05.218Z,1.13
2022-09-17T23:36:37.029Z,1.33
2022-09-17T23:39:06.623Z,1.33
2022-09-17T23:41:38.335Z,1.13
2022-09-17T23:44:14.552Z,1.05
2022-09-17T23:46:44.845Z,1.20
2022-09-17T23:49:14.412Z,1.00
2022-09-17T23:51:42.486Z,1.30
2022-09-17T23:54:10.758Z,1.08
2022-09-17T23:56:38.595Z,1.10
2022-09-17T23:59:07.452Z,0.80
